createdAt,value
2023-05-21T00:00:54.261Z,8.80
2023-05-21T00:03:24.295Z,7.60
2023-05-21T00:05:54.882Z,8.73
2023-05-21T00:08:23.072Z,8.40
2023-05-21T00:10:51.253Z,8.00
2023-05-21T00:13:19.703Z,8.40
2023-05-21T00:15:49.286Z,8.80
2023-05-21T00:18:18.233Z,8.60
2023-05-21T00:20:47.741Z,9.00
2023-05-21T00:23:18.643Z,8.00
2023-05-21T00:25:48.041Z,7.70
2023-05-21T00:28:16.224Z,9.10
2023-05-21T00:30:44.945Z,8.73
2023-05-21T00:33:14.886Z,9.17
2023-05-21T00:35:43.136Z,8.77
2023-05-21T00:38:11.338Z,8.10
2023-05-21T00:40:41.269Z,8.70
2023-05-21T00:43:10.160Z,7.63
2023-05-21T00:45:38.837Z,9.37
2023-05-21T00:48:08.437Z,7.43
2023-05-21T00:50:39.663Z,8.63
2023-05-21T00:53:09.705Z,8.67
2023-05-21T00:55:38.490Z,8.97
2023-05-21T00:58:07.468Z,8.40
2023-05-21T01:00:37.450Z,8.40
2023-05-21T01:03:06.868Z,8.83
2023-05-21T01:05:35.296Z,8.80
2023-05-21T01:08:05.664Z,8.07
2023-05-21T01:10:34.193Z,7.43
2023-05-21T01:13:02.790Z,8.50
2023-05-21T01:15:31.318Z,8.90
2023-05-21T01:17:59.916Z,7.97
2023-05-21T01:20:30.485Z,8.30
2023-05-21T01:23:00.278Z,9.37
2023-05-21T01:25:28.462Z,8.13
2023-05-21T01:27:56.580Z,8.03
2023-05-21T01:30:25.618Z,7.67
2023-05-21T01:33:02.826Z,8.63
2023-05-21T01:35:36.272Z,9.13
2023-05-21T01:38:19.182Z,8.80
2023-05-21T01:40:53.269Z,9.07
2023-05-21T01:43:23.636Z,9.40
2023-05-21T01:45:55.501Z,9.33
2023-05-21T01:48:26.516Z,8.27
2023-05-21T01:50:56.222Z,9.30
2023-05-21T01:53:25.733Z,8.20
2023-05-21T01:55:54.564Z,9.07
2023-05-21T01:58:24.171Z,8.73
2023-05-21T02:00:52.397Z,8.50
2023-05-21T02:03:21.785Z,8.30
2023-05-21T02:05:51.997Z,9.80
2023-05-21T02:08:20.743Z,9.47
2023-05-21T02:10:50.384Z,9.50
2023-05-21T02:13:20.443Z,8.70
2023-05-21T02:15:48.674Z,7.97
2023-05-21T02:18:18.486Z,8.53
2023-05-21T02:20:46.732Z,8.60
2023-05-21T02:23:14.956Z,8.60
2023-05-21T02:25:43.972Z,9.10
2023-05-21T02:28:13.506Z,8.20
2023-05-21T02:30:41.686Z,7.90
2023-05-21T02:33:14.215Z,8.80
2023-05-21T02:35:43.897Z,9.43
2023-05-21T02:38:13.677Z,8.87
2023-05-21T02:40:41.968Z,9.03
2023-05-21T02:43:10.147Z,8.50
2023-05-21T02:45:40.027Z,8.23
2023-05-21T02:48:08.333Z,7.77
2023-05-21T02:50:41.535Z,8.17
2023-05-21T02:53:09.874Z,8.30
2023-05-21T02:55:38.394Z,7.77
2023-05-21T02:58:06.708Z,8.07
2023-05-21T03:00:35.010Z,8.20
2023-05-21T03:03:04.964Z,8.10
2023-05-21T03:05:33.244Z,8.87
2023-05-21T03:08:01.369Z,9.20
2023-05-21T03:10:30.032Z,9.00
2023-05-21T03:12:58.228Z,7.43
2023-05-21T03:15:33.283Z,8.60
2023-05-21T03:18:01.854Z,8.20
2023-05-21T03:20:32.134Z,9.57
2023-05-21T03:23:00.528Z,8.13
2023-05-21T03:25:28.737Z,9.03
2023-05-21T03:27:57.123Z,8.43
2023-05-21T03:30:52.136Z,8.67
2023-05-21T03:33:38.975Z,8.90
2023-05-21T03:36:20.999Z,8.93
2023-05-21T03:38:49.257Z,8.77
2023-05-21T03:41:17.441Z,8.13
2023-05-21T03:43:50.135Z,9.87
2023-05-21T03:46:19.124Z,8.60
2023-05-21T03:49:19.886Z,9.70
2023-05-21T03:51:51.699Z,8.73
2023-05-21T03:54:21.513Z,7.93
2023-05-21T03:56:51.714Z,8.80
2023-05-21T03:59:20.422Z,9.30
2023-05-21T04:01:49.486Z,8.80
2023-05-21T04:04:20.014Z,8.77
2023-05-21T04:06:48.267Z,8.60
2023-05-21T04:09:17.804Z,8.00
2023-05-21T04:11:46.859Z,9.07
2023-05-21T04:14:15.048Z,9.30
2023-05-21T04:16:44.933Z,9.17
2023-05-21T04:19:13.168Z,8.73
2023-05-21T04:21:41.962Z,8.23
2023-05-21T04:24:10.470Z,10.23
2023-05-21T04:26:51.947Z,8.23
2023-05-21T04:29:21.419Z,8.60
2023-05-21T04:31:51.349Z,9.20
2023-05-21T04:34:19.963Z,8.90
2023-05-21T04:36:48.451Z,8.90
2023-05-21T04:39:17.140Z,9.63
2023-05-21T04:41:45.336Z,8.70
2023-05-21T04:44:15.443Z,9.40
2023-05-21T04:46:46.852Z,9.33
2023-05-21T04:49:15.370Z,8.57
2023-05-21T04:51:43.510Z,8.53
2023-05-21T04:54:11.669Z,9.10
2023-05-21T04:56:39.841Z,8.30
2023-05-21T04:59:08.217Z,8.70
2023-05-21T05:01:38.546Z,8.90
2023-05-21T05:04:07.060Z,8.50
2023-05-21T05:06:35.259Z,9.00
2023-05-21T05:09:04.542Z,9.10
2023-05-21T05:11:32.919Z,8.53
2023-05-21T05:14:01.091Z,8.57
2023-05-21T05:16:29.700Z,9.43
2023-05-21T05:18:59.893Z,8.70
2023-05-21T05:21:28.173Z,8.67
2023-05-21T05:23:56.500Z,9.70
2023-05-21T05:26:28.545Z,9.47
2023-05-21T05:28:57.630Z,8.37
2023-05-21T05:31:26.989Z,8.60
2023-05-21T05:33:55.407Z,8.20
2023-05-21T05:36:27.216Z,9.13
2023-05-21T05:38:55.450Z,9.67
2023-05-21T05:41:24.393Z,8.63
2023-05-21T05:43:52.557Z,9.03
2023-05-21T05:46:23.311Z,9.43
2023-05-21T05:48:52.895Z,9.70
2023-05-21T05:51:21.131Z,10.50
2023-05-21T05:53:51.006Z,10.43
2023-05-21T05:56:19.242Z,9.50
2023-05-21T05:58:47.481Z,9.50
2023-05-21T06:01:17.680Z,10.93
2023-05-21T06:03:46.655Z,9.50
2023-05-21T06:06:19.468Z,10.70
2023-05-21T06:08:49.923Z,10.20
2023-05-21T06:11:19.072Z,9.27
2023-05-21T06:13:47.661Z,8.10
2023-05-21T06:16:18.297Z,9.63
2023-05-21T06:18:46.660Z,10.60
2023-05-21T06:21:14.933Z,9.30
2023-05-21T06:23:43.194Z,9.60
2023-05-21T06:26:12.717Z,8.50
2023-05-21T06:28:41.625Z,8.67
2023-05-21T06:31:11.748Z,9.60
2023-05-21T06:33:40.732Z,8.70
2023-05-21T06:36:09.566Z,8.80
2023-05-21T06:38:37.810Z,9.00
2023-05-21T06:41:05.999Z,9.57
2023-05-21T06:43:55.905Z,8.67
2023-05-21T06:46:59.462Z,8.20
2023-05-21T06:49:27.777Z,8.30
2023-05-21T06:51:55.961Z,8.50
2023-05-21T06:54:25.530Z,8.63
2023-05-21T06:56:55.099Z,8.47
2023-05-21T06:59:24.700Z,8.53
2023-05-21T07:01:53.064Z,8.40
2023-05-21T07:04:21.352Z,8.97
2023-05-21T07:06:49.610Z,8.20
2023-05-21T07:09:18.277Z,8.83
2023-05-21T07:11:47.790Z,8.37
2023-05-21T07:14:17.952Z,8.90
2023-05-21T07:16:47.662Z,8.40
2023-05-21T07:19:16.681Z,8.77
2023-05-21T07:21:45.893Z,8.67
2023-05-21T07:24:14.215Z,7.23
2023-05-21T07:26:42.517Z,8.20
2023-05-21T07:29:12.118Z,8.77
2023-05-21T07:31:40.679Z,8.47
2023-05-21T07:34:10.413Z,8.30
2023-05-21T07:36:40.783Z,8.17
2023-05-21T07:39:09.040Z,8.50
2023-05-21T07:41:38.522Z,8.37
2023-05-21T07:44:09.242Z,7.80
2023-05-21T07:46:41.401Z,7.53
2023-05-21T07:49:16.598Z,7.97
2023-05-21T07:51:46.249Z,7.90
2023-05-21T07:54:14.449Z,8.00
2023-05-21T07:56:42.739Z,7.30
2023-05-21T07:59:18.220Z,7.33
2023-05-21T08:01:46.543Z,7.90
2023-05-21T08:04:16.212Z,8.17
2023-05-21T08:06:44.481Z,7.30
2023-05-21T08:09:12.686Z,8.20
2023-05-21T08:11:42.141Z,6.87
2023-05-21T08:14:10.419Z,6.87
2023-05-21T08:16:39.071Z,7.70
2023-05-21T08:19:07.345Z,7.00
2023-05-21T08:21:36.965Z,7.00
2023-05-21T08:24:05.272Z,7.87
2023-05-21T08:26:33.525Z,8.10
2023-05-21T08:29:02.363Z,7.03
2023-05-21T08:31:30.717Z,7.77
2023-05-21T08:33:59.344Z,7.23
2023-05-21T08:36:43.234Z,6.80
2023-05-21T08:39:26.048Z,7.57
2023-05-21T08:41:58.769Z,7.47
2023-05-21T08:44:29.872Z,7.43
2023-05-21T08:47:00.309Z,6.57
2023-05-21T08:49:32.046Z,7.70
2023-05-21T08:52:02.481Z,5.83
2023-05-21T08:54:30.870Z,7.30
2023-05-21T08:57:00.769Z,7.10
2023-05-21T08:59:29.007Z,6.77
2023-05-21T09:01:58.311Z,6.73
2023-05-21T09:04:33.991Z,6.93
2023-05-21T09:07:04.106Z,7.07
2023-05-21T09:10:10.045Z,6.90
2023-05-21T09:12:38.283Z,6.67
2023-05-21T09:15:08.190Z,6.53
2023-05-21T09:17:38.700Z,6.10
2023-05-21T09:20:27.817Z,8.07
2023-05-21T09:23:06.761Z,7.30
2023-05-21T09:25:38.718Z,6.40
2023-05-21T09:28:16.813Z,6.93
2023-05-21T09:30:49.058Z,6.63
2023-05-21T09:33:26.767Z,6.87
2023-05-21T09:35:55.215Z,7.30
2023-05-21T09:38:27.028Z,6.57
2023-05-21T09:40:57.475Z,6.57
2023-05-21T09:43:26.868Z,6.93
2023-05-21T09:46:01.221Z,6.20
2023-05-21T09:48:37.076Z,6.33
2023-05-21T09:51:17.735Z,7.33
2023-05-21T09:53:50.770Z,6.67
2023-05-21T09:56:23.531Z,6.50
2023-05-21T09:58:54.810Z,6.43
2023-05-21T10:01:24.520Z,6.60
2023-05-21T10:03:56.983Z,7.40
2023-05-21T10:06:27.287Z,6.60
2023-05-21T10:08:58.118Z,6.23
2023-05-21T10:11:28.205Z,6.17
2023-05-21T10:14:03.097Z,5.93
2023-05-21T10:16:33.848Z,6.10
2023-05-21T10:19:02.757Z,6.70
2023-05-21T10:21:33.283Z,5.53
2023-05-21T10:24:04.268Z,6.20
2023-05-21T10:26:32.845Z,5.60
2023-05-21T10:29:01.411Z,5.77
2023-05-21T10:31:30.553Z,5.70
2023-05-21T10:33:59.194Z,5.53
2023-05-21T10:36:31.012Z,6.23
2023-05-21T10:39:01.313Z,5.60
2023-05-21T10:41:38.260Z,5.63
2023-05-21T10:44:18.405Z,5.93
2023-05-21T10:47:08.625Z,6.00
2023-05-21T10:50:05.140Z,6.17
2023-05-21T10:52:47.525Z,5.43
2023-05-21T10:55:28.131Z,6.93
2023-05-21T10:58:24.931Z,5.27
2023-05-21T11:00:55.757Z,6.20
2023-05-21T11:03:24.810Z,5.07
2023-05-21T11:05:55.578Z,5.47
2023-05-21T11:08:25.104Z,5.43
2023-05-21T11:10:54.472Z,5.40
2023-05-21T11:13:24.033Z,5.43
2023-05-21T11:16:09.175Z,5.43
2023-05-21T11:19:02.640Z,5.60
2023-05-21T11:21:32.763Z,5.30
2023-05-21T11:24:19.443Z,6.07
2023-05-21T11:27:07.200Z,5.50
2023-05-21T11:29:44.573Z,6.50
2023-05-21T11:32:17.607Z,5.83
2023-05-21T11:34:47.262Z,6.00
2023-05-21T11:37:35.588Z,5.13
2023-05-21T11:40:26.293Z,5.33
2023-05-21T11:42:56.272Z,6.27
2023-05-21T11:45:30.845Z,4.80
2023-05-21T11:47:59.339Z,5.30
2023-05-21T11:50:28.364Z,5.50
2023-05-21T11:52:57.002Z,5.30
2023-05-21T11:55:26.223Z,5.30
2023-05-21T11:57:55.532Z,4.53
2023-05-21T12:00:25.468Z,4.93
2023-05-21T12:02:55.799Z,5.07
2023-05-21T12:05:25.267Z,5.40
2023-05-21T12:07:54.681Z,6.00
2023-05-21T12:10:24.124Z,5.50
2023-05-21T12:12:56.209Z,6.00
2023-05-21T12:15:27.915Z,5.00
2023-05-21T12:17:56.850Z,5.90
2023-05-21T12:20:28.213Z,4.60
2023-05-21T12:22:58.947Z,4.60
2023-05-21T12:25:27.546Z,5.10
2023-05-21T12:27:58.766Z,4.53
2023-05-21T12:30:29.578Z,4.90
2023-05-21T12:33:02.190Z,5.17
2023-05-21T12:35:32.645Z,4.37
2023-05-21T12:38:03.052Z,4.27
2023-05-21T12:40:39.195Z,5.30
2023-05-21T12:43:08.480Z,4.00
2023-05-21T12:45:40.822Z,4.33
2023-05-21T12:48:09.588Z,4.67
2023-05-21T12:50:42.174Z,5.10
2023-05-21T12:53:11.700Z,5.50
2023-05-21T12:55:40.527Z,4.90
2023-05-21T12:58:09.487Z,4.53
2023-05-21T13:00:39.434Z,4.20
2023-05-21T13:03:07.994Z,4.03
2023-05-21T13:05:36.334Z,4.43
2023-05-21T13:08:04.619Z,4.27
2023-05-21T13:10:32.805Z,4.40
2023-05-21T13:13:01.797Z,4.60
2023-05-21T13:15:30.172Z,5.30
2023-05-21T13:18:01.368Z,4.20
2023-05-21T13:20:30.117Z,5.20
2023-05-21T13:22:58.463Z,4.53
2023-05-21T13:25:29.118Z,4.70
2023-05-21T13:27:58.451Z,4.10
2023-05-21T13:30:26.646Z,4.37
2023-05-21T13:32:55.174Z,4.33
2023-05-21T13:35:24.839Z,4.13
2023-05-21T13:37:53.084Z,4.47
2023-05-21T13:40:21.509Z,3.93
2023-05-21T13:42:51.179Z,4.33
2023-05-21T13:45:20.888Z,4.17
2023-05-21T13:47:50.251Z,4.33
2023-05-21T13:50:18.618Z,4.73
2023-05-21T13:52:48.234Z,4.37
2023-05-21T13:55:16.867Z,4.43
2023-05-21T13:57:45.980Z,4.20
2023-05-21T14:00:16.218Z,4.17
2023-05-21T14:02:45.416Z,4.40
2023-05-21T14:05:13.992Z,4.33
2023-05-21T14:07:42.794Z,4.00
2023-05-21T14:10:13.775Z,4.37
2023-05-21T14:12:42.198Z,4.67
2023-05-21T14:15:11.969Z,3.70
2023-05-21T14:17:42.437Z,4.30
2023-05-21T14:20:11.650Z,4.20
2023-05-21T14:22:40.118Z,4.20
2023-05-21T14:25:09.020Z,4.63
2023-05-21T14:27:38.849Z,4.07
2023-05-21T14:30:08.148Z,4.07
2023-05-21T14:32:36.369Z,3.80
2023-05-21T14:35:06.001Z,3.97
2023-05-21T14:37:34.200Z,3.53
2023-05-21T14:40:02.382Z,4.10
2023-05-21T14:42:30.901Z,3.80
2023-05-21T14:45:16.884Z,3.70
2023-05-21T14:47:47.775Z,4.40
2023-05-21T14:50:17.532Z,3.97
2023-05-21T14:52:45.777Z,3.90
2023-05-21T14:55:16.530Z,3.77
2023-05-21T14:57:45.000Z,3.53
2023-05-21T15:00:15.349Z,4.20
2023-05-21T15:02:43.652Z,4.00
2023-05-21T15:05:12.028Z,3.70
2023-05-21T15:07:40.282Z,3.50
2023-05-21T15:10:09.991Z,3.40
2023-05-21T15:12:38.143Z,3.70
2023-05-21T15:15:07.513Z,4.37
2023-05-21T15:17:37.539Z,3.50
2023-05-21T15:20:07.164Z,3.87
2023-05-21T15:22:35.493Z,3.70
2023-05-21T15:25:04.697Z,3.70
2023-05-21T15:27:33.098Z,3.47
2023-05-21T15:30:01.743Z,3.70
2023-05-21T15:32:30.171Z,3.60
2023-05-21T15:34:59.797Z,3.80
2023-05-21T15:37:28.092Z,3.83
2023-05-21T15:39:56.284Z,3.87
2023-05-21T15:42:24.458Z,3.63
2023-05-21T15:44:52.620Z,3.90
2023-05-21T15:47:21.268Z,3.97
2023-05-21T15:49:49.475Z,3.50
2023-05-21T15:52:19.841Z,3.93
2023-05-21T15:54:48.018Z,4.03
2023-05-21T15:57:16.315Z,4.10
2023-05-21T15:59:44.495Z,3.70
2023-05-21T16:02:12.703Z,3.33
2023-05-21T16:04:40.889Z,3.80
2023-05-21T16:07:09.068Z,3.40
2023-05-21T16:09:38.652Z,3.40
2023-05-21T16:12:07.563Z,3.60
2023-05-21T16:14:35.777Z,3.60
2023-05-21T16:17:04.113Z,3.97
2023-05-21T16:19:32.496Z,4.40
2023-05-21T16:22:01.980Z,3.80
2023-05-21T16:24:30.240Z,4.07
2023-05-21T16:26:59.797Z,3.50
2023-05-21T16:29:27.964Z,3.60
2023-05-21T16:31:57.273Z,3.17
2023-05-21T16:34:25.651Z,3.37
2023-05-21T16:36:53.801Z,3.17
2023-05-21T16:39:22.002Z,3.20
2023-05-21T16:41:50.154Z,3.63
2023-05-21T16:44:20.368Z,3.67
2023-05-21T16:46:48.733Z,3.27
2023-05-21T16:49:16.942Z,3.50
2023-05-21T16:51:45.258Z,3.03
2023-05-21T16:54:13.484Z,3.30
2023-05-21T16:56:41.737Z,3.37
2023-05-21T16:59:10.461Z,3.50
2023-05-21T17:01:40.991Z,3.50
2023-05-21T17:04:09.831Z,3.53
2023-05-21T17:06:38.574Z,2.93
2023-05-21T17:09:07.400Z,3.60
2023-05-21T17:11:36.176Z,2.77
2023-05-21T17:14:04.844Z,3.37
2023-05-21T17:16:33.739Z,3.67
2023-05-21T17:19:04.122Z,3.10
2023-05-21T17:21:33.012Z,3.33
2023-05-21T17:24:01.758Z,3.40
2023-05-21T17:26:30.845Z,3.17
2023-05-21T17:28:59.827Z,3.00
2023-05-21T17:31:29.590Z,3.67
2023-05-21T17:33:58.569Z,3.77
2023-05-21T17:36:28.566Z,3.77
2023-05-21T17:38:57.347Z,3.20
2023-05-21T17:41:26.662Z,2.90
2023-05-21T17:43:55.586Z,3.10
2023-05-21T17:46:24.617Z,2.83
2023-05-21T17:48:53.409Z,3.03
2023-05-21T17:51:22.338Z,3.40
2023-05-21T17:53:52.419Z,3.00
2023-05-21T17:56:21.654Z,3.27
2023-05-21T17:58:50.722Z,3.40
2023-05-21T18:01:19.522Z,3.07
2023-05-21T18:03:47.841Z,3.30
2023-05-21T18:06:16.750Z,3.37
2023-05-21T18:08:44.968Z,3.03
2023-05-21T18:11:14.535Z,2.70
2023-05-21T18:13:44.228Z,3.00
2023-05-21T18:16:12.556Z,3.17
2023-05-21T18:18:40.726Z,3.33
2023-05-21T18:21:09.381Z,3.10
2023-05-21T18:23:37.691Z,3.27
2023-05-21T18:26:05.970Z,2.97
2023-05-21T18:28:36.274Z,3.37
2023-05-21T18:31:04.817Z,2.93
2023-05-21T18:33:33.082Z,3.00
2023-05-21T18:36:01.287Z,3.23
2023-05-21T18:38:29.462Z,3.40
2023-05-21T18:40:57.667Z,2.87
2023-05-21T18:43:26.015Z,3.33
2023-05-21T18:45:55.600Z,2.90
2023-05-21T18:48:23.863Z,3.27
2023-05-21T18:50:52.832Z,3.50
2023-05-21T18:53:21.112Z,2.90
2023-05-21T18:55:49.332Z,2.70
2023-05-21T18:58:17.606Z,3.10
2023-05-21T19:00:45.817Z,3.37
2023-05-21T19:03:16.250Z,3.30
2023-05-21T19:05:44.537Z,3.10
2023-05-21T19:08:14.810Z,2.77
2023-05-21T19:10:43.010Z,3.23
2023-05-21T19:13:11.347Z,3.17
2023-05-21T19:15:39.733Z,3.27
2023-05-21T19:18:08.558Z,2.93
2023-05-21T19:20:38.405Z,3.43
2023-05-21T19:23:06.725Z,3.37
2023-05-21T19:25:34.979Z,2.70
2023-05-21T19:28:03.221Z,3.37
2023-05-21T19:30:33.607Z,3.00
2023-05-21T19:33:01.913Z,2.70
2023-05-21T19:35:30.413Z,2.80
2023-05-21T19:38:01.872Z,2.83
2023-05-21T19:40:32.465Z,2.90
2023-05-21T19:43:00.594Z,3.00
2023-05-21T19:45:28.812Z,3.00
2023-05-21T19:47:57.456Z,3.40
2023-05-21T19:50:28.436Z,3.10
2023-05-21T19:52:57.548Z,3.27
2023-05-21T19:55:28.384Z,2.83
2023-05-21T19:57:56.710Z,3.43
2023-05-21T20:00:26.400Z,2.93
2023-05-21T20:02:56.152Z,3.10
2023-05-21T20:05:24.493Z,3.07
2023-05-21T20:07:52.748Z,2.90
2023-05-21T20:10:20.909Z,2.87
2023-05-21T20:12:50.484Z,3.50
2023-05-21T20:15:18.818Z,2.87
2023-05-21T20:17:50.284Z,3.83
2023-05-21T20:20:18.795Z,3.13
2023-05-21T20:22:47.035Z,2.97
2023-05-21T20:25:15.412Z,3.20
2023-05-21T20:27:43.604Z,3.10
2023-05-21T20:30:13.659Z,2.53
2023-05-21T20:32:42.005Z,3.10
2023-05-21T20:35:10.716Z,3.10
2023-05-21T20:37:39.005Z,3.07
2023-05-21T20:40:09.125Z,2.87
2023-05-21T20:42:37.337Z,3.03
2023-05-21T20:45:06.237Z,2.77
2023-05-21T20:47:36.272Z,3.20
2023-05-21T20:50:04.933Z,3.10
2023-05-21T20:52:33.155Z,3.33
2023-05-21T20:55:04.494Z,2.63
2023-05-21T20:57:33.464Z,2.90
2023-05-21T21:00:02.204Z,2.63
2023-05-21T21:02:31.335Z,2.70
2023-05-21T21:05:02.839Z,2.47
2023-05-21T21:07:33.567Z,2.93
2023-05-21T21:10:02.488Z,2.73
2023-05-21T21:12:31.486Z,2.80
2023-05-21T21:15:00.342Z,2.70
2023-05-21T21:17:29.029Z,3.30
2023-05-21T21:19:57.878Z,2.83
2023-05-21T21:22:29.582Z,2.87
2023-05-21T21:24:58.914Z,3.00
2023-05-21T21:27:28.054Z,2.80
2023-05-21T21:29:56.755Z,2.30
2023-05-21T21:32:25.592Z,2.60
2023-05-21T21:34:54.400Z,2.70
2023-05-21T21:37:23.309Z,2.60
2023-05-21T21:39:53.559Z,2.43
2023-05-21T21:42:22.492Z,3.57
2023-05-21T21:44:51.285Z,2.40
2023-05-21T21:47:19.889Z,3.03
2023-05-21T21:49:49.429Z,3.47
2023-05-21T21:52:19.132Z,2.60
2023-05-21T21:54:48.182Z,3.17
2023-05-21T21:57:18.443Z,2.30
2023-05-21T21:59:47.024Z,3.10
2023-05-21T22:02:17.014Z,3.20
2023-05-21T22:04:45.328Z,2.83
2023-05-21T22:07:18.122Z,2.70
2023-05-21T22:09:46.629Z,3.10
2023-05-21T22:12:15.037Z,2.97
2023-05-21T22:14:44.904Z,2.73
2023-05-21T22:17:17.844Z,2.80
2023-05-21T22:19:46.080Z,2.70
2023-05-21T22:22:14.330Z,3.17
2023-05-21T22:24:42.577Z,3.10
2023-05-21T22:27:10.729Z,2.67
2023-05-21T22:29:39.048Z,2.90
2023-05-21T22:32:08.772Z,3.00
2023-05-21T22:34:38.549Z,2.77
2023-05-21T22:37:06.766Z,3.20
2023-05-21T22:39:34.954Z,3.30
2023-05-21T22:42:03.150Z,2.80
2023-05-21T22:44:31.435Z,3.00
2023-05-21T22:47:00.963Z,2.40
2023-05-21T22:49:32.689Z,2.70
2023-05-21T22:52:05.016Z,2.90
2023-05-21T22:54:33.299Z,2.53
2023-05-21T22:57:02.360Z,2.57
2023-05-21T22:59:30.894Z,3.07
2023-05-21T23:01:59.303Z,2.97
2023-05-21T23:04:43.441Z,3.60
2023-05-21T23:07:12.482Z,2.40
2023-05-21T23:09:41.066Z,2.67
2023-05-21T23:12:10.891Z,2.67
2023-05-21T23:14:39.058Z,2.80
2023-05-21T23:17:07.535Z,3.13
2023-05-21T23:19:37.151Z,2.93
2023-05-21T23:22:05.653Z,3.33
2023-05-21T23:24:35.091Z,3.07
2023-05-21T23:27:03.650Z,2.60
2023-05-21T23:29:31.863Z,2.80
2023-05-21T23:32:01.105Z,2.93
2023-05-21T23:34:29.470Z,2.83
2023-05-21T23:37:00.490Z,2.97
2023-05-21T23:39:29.138Z,2.67
2023-05-21T23:41:57.581Z,2.93
2023-05-21T23:44:25.799Z,3.20
2023-05-21T23:46:54.070Z,2.50
2023-05-21T23:49:22.402Z,2.70
2023-05-21T23:51:51.049Z,3.33
2023-05-21T23:54:20.584Z,2.87
2023-05-21T23:56:48.737Z,3.40
2023-05-21T23:59:18.442Z,2.90
